Terminal Aerodrome Forecast
Issued by NWS

Home | Current Version | Previous Version | Graphics & Text | Print | Product List | Glossary On
Versions: 1 2 3 4 5 6 7 8 9 10 11 12 13 14 15 16 17 18 19 20 21
000
FTUS41 KCLE 281900 AAA
TAFFDY
TAF AMD
KFDY 281905Z 2819/2918 20010KT P6SM SCT025 BKN050
      TEMPO 2819/2821 2SM -SHRA BKN025
     FM290800 18010KT P6SM OVC050
     FM291400 20014G22KT P6SM VCSH BKN035 OVC100=

USA.gov is the U.S. government's official web portal to all federal, state and local government web resources and services.